sensor_id;sensor_type;location;lat;lon;timestamp;P1;durP1;ratioP1;P2;durP2;ratioP2
22236;SDS011;11287;48.122;11.536;2023-05-21T00:01:11;12.45;;;10.18;;
22236;SDS011;11287;48.122;11.536;2023-05-21T00:03:39;11.55;;;10.10;;
22236;SDS011;11287;48.122;11.536;2023-05-21T00:06:05;13.45;;;10.75;;
22236;SDS011;11287;48.122;11.536;2023-05-21T00:08:31;10.55;;;9.35;;
22236;SDS011;11287;48.122;11.536;2023-05-21T00:10:58;12.32;;;10.05;;
22236;SDS011;11287;48.122;11.536;2023-05-21T00:13:23;13.90;;;10.00;;
22236;SDS011;11287;48.122;11.536;2023-05-21T00:15:48;11.98;;;9.57;;
22236;SDS011;11287;48.122;11.536;2023-05-21T00:18:14;12.30;;;10.10;;
22236;SDS011;11287;48.122;11.536;2023-05-21T00:20:40;12.93;;;10.38;;
22236;SDS011;11287;48.122;11.536;2023-05-21T00:23:05;12.13;;;10.15;;
22236;SDS011;11287;48.122;11.536;2023-05-21T00:25:31;13.63;;;10.00;;
22236;SDS011;11287;48.122;11.536;2023-05-21T00:27:57;16.15;;;10.00;;
22236;SDS011;11287;48.122;11.536;2023-05-21T00:30:22;14.48;;;10.10;;
22236;SDS011;11287;48.122;11.536;2023-05-21T00:32:47;18.10;;;10.25;;
22236;SDS011;11287;48.122;11.536;2023-05-21T00:35:12;14.82;;;11.05;;
22236;SDS011;11287;48.122;11.536;2023-05-21T00:37:38;11.23;;;9.95;;
22236;SDS011;11287;48.122;11.536;2023-05-21T00:40:05;13.07;;;10.40;;
22236;SDS011;11287;48.122;11.536;2023-05-21T00:42:32;12.77;;;9.85;;
22236;SDS011;11287;48.122;11.536;2023-05-21T00:44:58;13.00;;;9.70;;
22236;SDS011;11287;48.122;11.536;2023-05-21T00:47:23;12.13;;;9.80;;
22236;SDS011;11287;48.122;11.536;2023-05-21T00:49:50;13.15;;;9.93;;
22236;SDS011;11287;48.122;11.536;2023-05-21T00:52:17;11.25;;;9.40;;
22236;SDS011;11287;48.122;11.536;2023-05-21T00:54:45;12.32;;;8.57;;
22236;SDS011;11287;48.122;11.536;2023-05-21T00:57:10;13.18;;;8.02;;
22236;SDS011;11287;48.122;11.536;2023-05-21T00:59:36;11.02;;;9.00;;
22236;SDS011;11287;48.122;11.536;2023-05-21T01:02:01;14.40;;;9.45;;
22236;SDS011;11287;48.122;11.536;2023-05-21T01:04:28;10.35;;;8.93;;
22236;SDS011;11287;48.122;11.536;2023-05-21T01:06:54;12.77;;;8.90;;
22236;SDS011;11287;48.122;11.536;2023-05-21T01:09:20;12.82;;;8.65;;
22236;SDS011;11287;48.122;11.536;2023-05-21T01:11:48;10.18;;;8.35;;
22236;SDS011;11287;48.122;11.536;2023-05-21T01:14:15;12.60;;;8.63;;
22236;SDS011;11287;48.122;11.536;2023-05-21T01:16:41;9.85;;;8.13;;
22236;SDS011;11287;48.122;11.536;2023-05-21T01:19:12;11.40;;;8.00;;
22236;SDS011;11287;48.122;11.536;2023-05-21T01:21:40;11.82;;;9.27;;
22236;SDS011;11287;48.122;11.536;2023-05-21T01:24:08;10.50;;;8.02;;
22236;SDS011;11287;48.122;11.536;2023-05-21T01:26:34;9.90;;;8.23;;
22236;SDS011;11287;48.122;11.536;2023-05-21T01:29:02;11.57;;;8.50;;
22236;SDS011;11287;48.122;11.536;2023-05-21T01:31:36;9.88;;;8.55;;
22236;SDS011;11287;48.122;11.536;2023-05-21T01:36:43;9.77;;;8.03;;
22236;SDS011;11287;48.122;11.536;2023-05-21T01:39:14;9.75;;;8.70;;
22236;SDS011;11287;48.122;11.536;2023-05-21T01:41:42;9.55;;;8.52;;
22236;SDS011;11287;48.122;11.536;2023-05-21T01:44:09;10.02;;;9.02;;
22236;SDS011;11287;48.122;11.536;2023-05-21T01:46:35;10.07;;;8.30;;
22236;SDS011;11287;48.122;11.536;2023-05-21T01:49:01;12.75;;;8.45;;
22236;SDS011;11287;48.122;11.536;2023-05-21T01:51:26;12.13;;;9.07;;
22236;SDS011;11287;48.122;11.536;2023-05-21T01:53:52;11.35;;;9.15;;
22236;SDS011;11287;48.122;11.536;2023-05-21T01:56:17;11.93;;;9.32;;
22236;SDS011;11287;48.122;11.536;2023-05-21T01:58:43;10.75;;;8.95;;
22236;SDS011;11287;48.122;11.536;2023-05-21T02:01:08;11.02;;;8.75;;
22236;SDS011;11287;48.122;11.536;2023-05-21T02:03:33;11.15;;;9.07;;
22236;SDS011;11287;48.122;11.536;2023-05-21T02:05:59;9.57;;;8.02;;
22236;SDS011;11287;48.122;11.536;2023-05-21T02:08:24;11.95;;;8.07;;
22236;SDS011;11287;48.122;11.536;2023-05-21T02:10:51;10.75;;;7.88;;
22236;SDS011;11287;48.122;11.536;2023-05-21T02:13:16;10.40;;;7.50;;
22236;SDS011;11287;48.122;11.536;2023-05-21T02:15:44;10.32;;;7.85;;
22236;SDS011;11287;48.122;11.536;2023-05-21T02:18:11;12.70;;;8.05;;
22236;SDS011;11287;48.122;11.536;2023-05-21T02:20:36;11.40;;;7.57;;
22236;SDS011;11287;48.122;11.536;2023-05-21T02:23:01;10.80;;;8.40;;
22236;SDS011;11287;48.122;11.536;2023-05-21T02:25:26;9.75;;;7.72;;
22236;SDS011;11287;48.122;11.536;2023-05-21T02:27:52;9.32;;;7.70;;
22236;SDS011;11287;48.122;11.536;2023-05-21T02:30:18;11.98;;;7.75;;
22236;SDS011;11287;48.122;11.536;2023-05-21T02:32:43;9.93;;;7.70;;
22236;SDS011;11287;48.122;11.536;2023-05-21T02:35:10;11.40;;;7.65;;
22236;SDS011;11287;48.122;11.536;2023-05-21T02:37:36;12.48;;;8.13;;
22236;SDS011;11287;48.122;11.536;2023-05-21T02:40:02;11.40;;;7.25;;
22236;SDS011;11287;48.122;11.536;2023-05-21T02:42:28;11.38;;;7.57;;
22236;SDS011;11287;48.122;11.536;2023-05-21T02:44:53;9.82;;;7.90;;
22236;SDS011;11287;48.122;11.536;2023-05-21T02:47:19;10.77;;;8.20;;
22236;SDS011;11287;48.122;11.536;2023-05-21T02:49:44;11.95;;;8.90;;
22236;SDS011;11287;48.122;11.536;2023-05-21T02:52:10;14.90;;;8.18;;
22236;SDS011;11287;48.122;11.536;2023-05-21T02:54:35;10.55;;;8.13;;
22236;SDS011;11287;48.122;11.536;2023-05-21T02:57:01;10.98;;;8.10;;
22236;SDS011;11287;48.122;11.536;2023-05-21T02:59:26;9.80;;;7.90;;
22236;SDS011;11287;48.122;11.536;2023-05-21T03:01:51;11.30;;;8.07;;
22236;SDS011;11287;48.122;11.536;2023-05-21T03:04:17;10.98;;;8.65;;
22236;SDS011;11287;48.122;11.536;2023-05-21T03:06:42;10.30;;;8.45;;
22236;SDS011;11287;48.122;11.536;2023-05-21T03:09:08;11.80;;;8.68;;
22236;SDS011;11287;48.122;11.536;2023-05-21T03:11:34;8.68;;;7.78;;
22236;SDS011;11287;48.122;11.536;2023-05-21T03:14:00;10.45;;;8.10;;
22236;SDS011;11287;48.122;11.536;2023-05-21T03:16:25;15.40;;;8.30;;
22236;SDS011;11287;48.122;11.536;2023-05-21T03:18:50;11.32;;;8.25;;
22236;SDS011;11287;48.122;11.536;2023-05-21T03:21:16;11.07;;;8.18;;
22236;SDS011;11287;48.122;11.536;2023-05-21T03:23:41;10.10;;;7.90;;
22236;SDS011;11287;48.122;11.536;2023-05-21T03:26:07;12.45;;;8.35;;
22236;SDS011;11287;48.122;11.536;2023-05-21T03:28:33;9.55;;;7.45;;
22236;SDS011;11287;48.122;11.536;2023-05-21T03:30:58;9.07;;;7.63;;
22236;SDS011;11287;48.122;11.536;2023-05-21T03:33:24;10.55;;;7.05;;
22236;SDS011;11287;48.122;11.536;2023-05-21T03:35:49;10.38;;;7.35;;
22236;SDS011;11287;48.122;11.536;2023-05-21T03:38:14;11.82;;;7.35;;
22236;SDS011;11287;48.122;11.536;2023-05-21T03:40:40;9.77;;;7.22;;
22236;SDS011;11287;48.122;11.536;2023-05-21T03:43:05;10.45;;;7.22;;
22236;SDS011;11287;48.122;11.536;2023-05-21T03:45:30;11.13;;;7.70;;
22236;SDS011;11287;48.122;11.536;2023-05-21T03:47:56;8.00;;;7.20;;
22236;SDS011;11287;48.122;11.536;2023-05-21T03:50:21;9.68;;;7.25;;
22236;SDS011;11287;48.122;11.536;2023-05-21T03:52:46;12.07;;;7.68;;
22236;SDS011;11287;48.122;11.536;2023-05-21T03:55:12;10.15;;;7.13;;
22236;SDS011;11287;48.122;11.536;2023-05-21T03:57:37;8.25;;;7.35;;
22236;SDS011;11287;48.122;11.536;2023-05-21T04:00:02;8.60;;;7.43;;
22236;SDS011;11287;48.122;11.536;2023-05-21T04:02:30;10.05;;;7.88;;
22236;SDS011;11287;48.122;11.536;2023-05-21T04:04:55;9.18;;;7.80;;
22236;SDS011;11287;48.122;11.536;2023-05-21T04:07:21;8.52;;;6.72;;
22236;SDS011;11287;48.122;11.536;2023-05-21T04:09:46;10.40;;;7.70;;
22236;SDS011;11287;48.122;11.536;2023-05-21T04:12:11;9.85;;;7.25;;
22236;SDS011;11287;48.122;11.536;2023-05-21T04:14:37;12.85;;;7.63;;
22236;SDS011;11287;48.122;11.536;2023-05-21T04:17:02;9.23;;;7.20;;
22236;SDS011;11287;48.122;11.536;2023-05-21T04:19:31;9.88;;;7.63;;
22236;SDS011;11287;48.122;11.536;2023-05-21T04:21:56;8.73;;;7.15;;
22236;SDS011;11287;48.122;11.536;2023-05-21T04:24:22;12.05;;;7.63;;
22236;SDS011;11287;48.122;11.536;2023-05-21T04:26:48;10.20;;;7.07;;
22236;SDS011;11287;48.122;11.536;2023-05-21T04:29:14;10.70;;;7.50;;
22236;SDS011;11287;48.122;11.536;2023-05-21T04:31:42;10.55;;;7.10;;
22236;SDS011;11287;48.122;11.536;2023-05-21T04:34:07;8.30;;;6.65;;
22236;SDS011;11287;48.122;11.536;2023-05-21T04:36:33;8.27;;;6.55;;
22236;SDS011;11287;48.122;11.536;2023-05-21T04:38:58;11.25;;;7.15;;
22236;SDS011;11287;48.122;11.536;2023-05-21T04:41:23;9.75;;;7.55;;
22236;SDS011;11287;48.122;11.536;2023-05-21T04:43:49;7.88;;;7.07;;
22236;SDS011;11287;48.122;11.536;2023-05-21T04:46:19;7.80;;;6.93;;
22236;SDS011;11287;48.122;11.536;2023-05-21T04:48:52;10.70;;;7.22;;
22236;SDS011;11287;48.122;11.536;2023-05-21T04:51:19;9.50;;;6.93;;
22236;SDS011;11287;48.122;11.536;2023-05-21T04:53:48;9.63;;;7.10;;
22236;SDS011;11287;48.122;11.536;2023-05-21T04:56:15;9.43;;;6.90;;
22236;SDS011;11287;48.122;11.536;2023-05-21T04:58:42;8.23;;;7.15;;
22236;SDS011;11287;48.122;11.536;2023-05-21T05:01:07;8.20;;;6.70;;
22236;SDS011;11287;48.122;11.536;2023-05-21T05:03:32;10.00;;;7.22;;
22236;SDS011;11287;48.122;11.536;2023-05-21T05:05:58;7.85;;;6.80;;
22236;SDS011;11287;48.122;11.536;2023-05-21T05:08:23;7.10;;;6.05;;
22236;SDS011;11287;48.122;11.536;2023-05-21T05:10:48;8.52;;;6.65;;
22236;SDS011;11287;48.122;11.536;2023-05-21T05:13:14;9.45;;;6.95;;
22236;SDS011;11287;48.122;11.536;2023-05-21T05:15:39;8.30;;;6.97;;
22236;SDS011;11287;48.122;11.536;2023-05-21T05:18:05;8.25;;;6.28;;
22236;SDS011;11287;48.122;11.536;2023-05-21T05:20:32;8.48;;;6.88;;
22236;SDS011;11287;48.122;11.536;2023-05-21T05:22:57;8.88;;;6.80;;
22236;SDS011;11287;48.122;11.536;2023-05-21T05:25:23;9.93;;;6.65;;
22236;SDS011;11287;48.122;11.536;2023-05-21T05:27:48;8.70;;;6.88;;
22236;SDS011;11287;48.122;11.536;2023-05-21T05:30:14;9.65;;;6.80;;
22236;SDS011;11287;48.122;11.536;2023-05-21T05:32:39;9.00;;;7.13;;
22236;SDS011;11287;48.122;11.536;2023-05-21T05:35:05;8.75;;;7.03;;
22236;SDS011;11287;48.122;11.536;2023-05-21T05:37:31;9.98;;;7.70;;
22236;SDS011;11287;48.122;11.536;2023-05-21T05:39:57;9.68;;;6.82;;
22236;SDS011;11287;48.122;11.536;2023-05-21T05:42:22;8.52;;;6.65;;
22236;SDS011;11287;48.122;11.536;2023-05-21T05:44:48;10.27;;;7.00;;
22236;SDS011;11287;48.122;11.536;2023-05-21T05:47:13;7.38;;;6.57;;
22236;SDS011;11287;48.122;11.536;2023-05-21T05:49:38;7.63;;;6.70;;
22236;SDS011;11287;48.122;11.536;2023-05-21T05:52:04;11.88;;;6.40;;
22236;SDS011;11287;48.122;11.536;2023-05-21T05:54:30;9.00;;;7.10;;
22236;SDS011;11287;48.122;11.536;2023-05-21T05:56:56;7.65;;;6.75;;
22236;SDS011;11287;48.122;11.536;2023-05-21T05:59:21;11.18;;;6.50;;
22236;SDS011;11287;48.122;11.536;2023-05-21T06:01:46;7.40;;;6.38;;
22236;SDS011;11287;48.122;11.536;2023-05-21T06:04:11;9.43;;;7.10;;
22236;SDS011;11287;48.122;11.536;2023-05-21T06:06:37;9.98;;;7.38;;
22236;SDS011;11287;48.122;11.536;2023-05-21T06:09:02;10.23;;;6.70;;
22236;SDS011;11287;48.122;11.536;2023-05-21T06:11:28;8.77;;;6.78;;
22236;SDS011;11287;48.122;11.536;2023-05-21T06:13:53;9.68;;;7.28;;
22236;SDS011;11287;48.122;11.536;2023-05-21T06:16:18;7.82;;;6.00;;
22236;SDS011;11287;48.122;11.536;2023-05-21T06:18:43;7.72;;;6.32;;
22236;SDS011;11287;48.122;11.536;2023-05-21T06:21:09;8.23;;;6.60;;
22236;SDS011;11287;48.122;11.536;2023-05-21T06:23:34;7.30;;;6.18;;
22236;SDS011;11287;48.122;11.536;2023-05-21T06:26:01;7.18;;;6.07;;
22236;SDS011;11287;48.122;11.536;2023-05-21T06:28:27;8.65;;;6.18;;
22236;SDS011;11287;48.122;11.536;2023-05-21T06:30:52;7.22;;;5.80;;
22236;SDS011;11287;48.122;11.536;2023-05-21T06:33:18;8.07;;;6.40;;
22236;SDS011;11287;48.122;11.536;2023-05-21T06:35:43;7.20;;;6.47;;
22236;SDS011;11287;48.122;11.536;2023-05-21T06:38:08;8.30;;;6.07;;
22236;SDS011;11287;48.122;11.536;2023-05-21T06:40:34;7.78;;;6.47;;
22236;SDS011;11287;48.122;11.536;2023-05-21T06:42:59;8.20;;;6.47;;
22236;SDS011;11287;48.122;11.536;2023-05-21T06:45:24;11.18;;;5.68;;
22236;SDS011;11287;48.122;11.536;2023-05-21T06:47:50;6.93;;;5.90;;
22236;SDS011;11287;48.122;11.536;2023-05-21T06:50:15;6.97;;;6.13;;
22236;SDS011;11287;48.122;11.536;2023-05-21T06:52:40;7.47;;;6.20;;
22236;SDS011;11287;48.122;11.536;2023-05-21T06:55:06;7.40;;;5.55;;
22236;SDS011;11287;48.122;11.536;2023-05-21T06:57:32;8.02;;;5.93;;
22236;SDS011;11287;48.122;11.536;2023-05-21T06:59:57;8.20;;;5.63;;
22236;SDS011;11287;48.122;11.536;2023-05-21T07:02:22;7.38;;;5.78;;
22236;SDS011;11287;48.122;11.536;2023-05-21T07:04:48;7.05;;;5.80;;
22236;SDS011;11287;48.122;11.536;2023-05-21T07:07:13;6.90;;;5.70;;
22236;SDS011;11287;48.122;11.536;2023-05-21T07:09:38;6.20;;;5.45;;
22236;SDS011;11287;48.122;11.536;2023-05-21T07:12:04;6.50;;;5.60;;
22236;SDS011;11287;48.122;11.536;2023-05-21T07:14:29;8.15;;;5.68;;
22236;SDS011;11287;48.122;11.536;2023-05-21T07:16:55;8.93;;;5.88;;
22236;SDS011;11287;48.122;11.536;2023-05-21T07:19:20;7.18;;;5.53;;
22236;SDS011;11287;48.122;11.536;2023-05-21T07:21:45;7.63;;;5.80;;
22236;SDS011;11287;48.122;11.536;2023-05-21T07:24:11;7.22;;;5.55;;
22236;SDS011;11287;48.122;11.536;2023-05-21T07:26:36;6.65;;;5.95;;
22236;SDS011;11287;48.122;11.536;2023-05-21T07:29:01;8.13;;;5.82;;
22236;SDS011;11287;48.122;11.536;2023-05-21T07:31:27;7.28;;;5.80;;
22236;SDS011;11287;48.122;11.536;2023-05-21T07:33:52;7.97;;;5.70;;
22236;SDS011;11287;48.122;11.536;2023-05-21T07:36:17;6.27;;;5.67;;
22236;SDS011;11287;48.122;11.536;2023-05-21T07:38:43;6.03;;;5.43;;
22236;SDS011;11287;48.122;11.536;2023-05-21T07:41:08;8.02;;;5.82;;
22236;SDS011;11287;48.122;11.536;2023-05-21T07:43:34;8.40;;;5.60;;
22236;SDS011;11287;48.122;11.536;2023-05-21T07:46:00;10.77;;;6.10;;
22236;SDS011;11287;48.122;11.536;2023-05-21T07:48:25;6.43;;;5.72;;
22236;SDS011;11287;48.122;11.536;2023-05-21T07:50:51;6.18;;;5.57;;
22236;SDS011;11287;48.122;11.536;2023-05-21T07:53:16;6.20;;;5.60;;
22236;SDS011;11287;48.122;11.536;2023-05-21T07:55:42;6.18;;;5.55;;
22236;SDS011;11287;48.122;11.536;2023-05-21T07:58:13;6.05;;;5.43;;
22236;SDS011;11287;48.122;11.536;2023-05-21T08:00:43;6.70;;;5.75;;
22236;SDS011;11287;48.122;11.536;2023-05-21T08:03:10;6.80;;;5.47;;
22236;SDS011;11287;48.122;11.536;2023-05-21T08:05:36;9.13;;;5.63;;
22236;SDS011;11287;48.122;11.536;2023-05-21T08:08:01;6.80;;;5.68;;
22236;SDS011;11287;48.122;11.536;2023-05-21T08:10:27;5.72;;;5.13;;
22236;SDS011;11287;48.122;11.536;2023-05-21T08:12:52;6.82;;;5.47;;
22236;SDS011;11287;48.122;11.536;2023-05-21T08:15:18;6.37;;;5.67;;
22236;SDS011;11287;48.122;11.536;2023-05-21T08:17:43;6.65;;;5.35;;
22236;SDS011;11287;48.122;11.536;2023-05-21T08:20:09;10.00;;;8.13;;
22236;SDS011;11287;48.122;11.536;2023-05-21T08:22:34;6.60;;;5.88;;
22236;SDS011;11287;48.122;11.536;2023-05-21T08:25:00;8.70;;;5.80;;
22236;SDS011;11287;48.122;11.536;2023-05-21T08:27:25;7.68;;;5.85;;
22236;SDS011;11287;48.122;11.536;2023-05-21T08:29:50;6.65;;;5.95;;
22236;SDS011;11287;48.122;11.536;2023-05-21T08:32:16;7.55;;;5.55;;
22236;SDS011;11287;48.122;11.536;2023-05-21T08:34:41;6.78;;;5.90;;
22236;SDS011;11287;48.122;11.536;2023-05-21T08:37:07;6.70;;;5.68;;
22236;SDS011;11287;48.122;11.536;2023-05-21T08:39:32;6.35;;;5.63;;
22236;SDS011;11287;48.122;11.536;2023-05-21T08:42:00;8.17;;;6.37;;
22236;SDS011;11287;48.122;11.536;2023-05-21T08:44:32;7.03;;;6.03;;
22236;SDS011;11287;48.122;11.536;2023-05-21T08:46:59;8.05;;;6.55;;
22236;SDS011;11287;48.122;11.536;2023-05-21T08:49:26;6.60;;;5.90;;
22236;SDS011;11287;48.122;11.536;2023-05-21T08:51:54;10.25;;;6.65;;
22236;SDS011;11287;48.122;11.536;2023-05-21T08:54:21;6.53;;;5.93;;
22236;SDS011;11287;48.122;11.536;2023-05-21T08:56:46;7.40;;;6.25;;
22236;SDS011;11287;48.122;11.536;2023-05-21T08:59:13;10.82;;;5.95;;
22236;SDS011;11287;48.122;11.536;2023-05-21T09:01:39;7.00;;;6.30;;
22236;SDS011;11287;48.122;11.536;2023-05-21T09:04:06;6.68;;;5.97;;
22236;SDS011;11287;48.122;11.536;2023-05-21T09:06:32;11.07;;;6.07;;
22236;SDS011;11287;48.122;11.536;2023-05-21T09:09:05;6.53;;;5.93;;
22236;SDS011;11287;48.122;11.536;2023-05-21T09:11:39;6.55;;;5.93;;
22236;SDS011;11287;48.122;11.536;2023-05-21T09:14:06;11.10;;;6.88;;
22236;SDS011;11287;48.122;11.536;2023-05-21T09:16:31;7.40;;;6.20;;
22236;SDS011;11287;48.122;11.536;2023-05-21T09:18:56;7.23;;;6.37;;
22236;SDS011;11287;48.122;11.536;2023-05-21T09:21:26;10.17;;;7.93;;
22236;SDS011;11287;48.122;11.536;2023-05-21T09:23:58;6.53;;;5.93;;
22236;SDS011;11287;48.122;11.536;2023-05-21T09:26:24;7.70;;;6.90;;
22236;SDS011;11287;48.122;11.536;2023-05-21T09:28:50;11.23;;;7.60;;
22236;SDS011;11287;48.122;11.536;2023-05-21T09:31:16;7.15;;;6.43;;
22236;SDS011;11287;48.122;11.536;2023-05-21T09:33:45;7.22;;;6.53;;
22236;SDS011;11287;48.122;11.536;2023-05-21T09:36:14;7.03;;;6.35;;
22236;SDS011;11287;48.122;11.536;2023-05-21T09:38:40;7.70;;;6.38;;
22236;SDS011;11287;48.122;11.536;2023-05-21T09:41:05;8.23;;;6.05;;
22236;SDS011;11287;48.122;11.536;2023-05-21T09:43:30;7.35;;;6.00;;
22236;SDS011;11287;48.122;11.536;2023-05-21T09:45:56;8.73;;;6.05;;
22236;SDS011;11287;48.122;11.536;2023-05-21T09:48:31;11.23;;;8.38;;
22236;SDS011;11287;48.122;11.536;2023-05-21T09:53:36;6.97;;;6.28;;
22236;SDS011;11287;48.122;11.536;2023-05-21T09:56:06;7.05;;;6.35;;
22236;SDS011;11287;48.122;11.536;2023-05-21T09:58:33;14.82;;;11.18;;
22236;SDS011;11287;48.122;11.536;2023-05-21T10:00:58;7.30;;;6.50;;
22236;SDS011;11287;48.122;11.536;2023-05-21T10:03:24;7.78;;;7.03;;
22236;SDS011;11287;48.122;11.536;2023-05-21T10:05:52;8.85;;;6.53;;
22236;SDS011;11287;48.122;11.536;2023-05-21T10:08:18;6.97;;;6.13;;
22236;SDS011;11287;48.122;11.536;2023-05-21T10:10:48;7.97;;;6.10;;
22236;SDS011;11287;48.122;11.536;2023-05-21T10:13:13;7.43;;;6.00;;
22236;SDS011;11287;48.122;11.536;2023-05-21T10:15:46;20.00;;;16.48;;
22236;SDS011;11287;48.122;11.536;2023-05-21T10:18:12;7.65;;;6.55;;
22236;SDS011;11287;48.122;11.536;2023-05-21T10:20:38;6.10;;;5.55;;
22236;SDS011;11287;48.122;11.536;2023-05-21T10:23:03;9.45;;;8.02;;
22236;SDS011;11287;48.122;11.536;2023-05-21T10:25:29;6.82;;;5.90;;
22236;SDS011;11287;48.122;11.536;2023-05-21T10:27:56;6.20;;;5.60;;
22236;SDS011;11287;48.122;11.536;2023-05-21T10:30:21;7.13;;;6.43;;
22236;SDS011;11287;48.122;11.536;2023-05-21T10:32:48;10.15;;;6.97;;
22236;SDS011;11287;48.122;11.536;2023-05-21T10:35:16;6.43;;;5.72;;
22236;SDS011;11287;48.122;11.536;2023-05-21T10:37:42;6.53;;;5.57;;
22236;SDS011;11287;48.122;11.536;2023-05-21T10:40:09;7.10;;;5.57;;
22236;SDS011;11287;48.122;11.536;2023-05-21T10:59:46;6.88;;;5.55;;
22236;SDS011;11287;48.122;11.536;2023-05-21T11:02:12;6.32;;;5.72;;
22236;SDS011;11287;48.122;11.536;2023-05-21T11:04:40;6.72;;;5.50;;
22236;SDS011;11287;48.122;11.536;2023-05-21T11:07:08;9.10;;;5.75;;
22236;SDS011;11287;48.122;11.536;2023-05-21T11:09:36;6.57;;;5.15;;
22236;SDS011;11287;48.122;11.536;2023-05-21T11:12:02;7.68;;;5.22;;
22236;SDS011;11287;48.122;11.536;2023-05-21T11:14:40;17.23;;;8.27;;
22236;SDS011;11287;48.122;11.536;2023-05-21T11:17:11;11.40;;;7.38;;
22236;SDS011;11287;48.122;11.536;2023-05-21T11:22:18;7.65;;;6.25;;
22236;SDS011;11287;48.122;11.536;2023-05-21T11:24:45;5.93;;;5.38;;
22236;SDS011;11287;48.122;11.536;2023-05-21T11:27:11;6.80;;;5.55;;
22236;SDS011;11287;48.122;11.536;2023-05-21T11:29:37;9.38;;;5.28;;
22236;SDS011;11287;48.122;11.536;2023-05-21T11:32:05;5.80;;;5.20;;
22236;SDS011;11287;48.122;11.536;2023-05-21T11:34:36;5.82;;;5.20;;
22236;SDS011;11287;48.122;11.536;2023-05-21T11:39:41;8.57;;;5.60;;
22236;SDS011;11287;48.122;11.536;2023-05-21T11:42:07;8.40;;;5.43;;
22236;SDS011;11287;48.122;11.536;2023-05-21T11:47:11;10.23;;;6.07;;
22236;SDS011;11287;48.122;11.536;2023-05-21T11:49:37;7.03;;;5.57;;
22236;SDS011;11287;48.122;11.536;2023-05-21T11:52:03;6.25;;;5.60;;
22236;SDS011;11287;48.122;11.536;2023-05-21T11:54:30;7.13;;;5.38;;
22236;SDS011;11287;48.122;11.536;2023-05-21T11:57:01;6.35;;;5.28;;
22236;SDS011;11287;48.122;11.536;2023-05-21T11:59:26;7.20;;;5.55;;
22236;SDS011;11287;48.122;11.536;2023-05-21T12:01:52;9.35;;;5.65;;
22236;SDS011;11287;48.122;11.536;2023-05-21T12:04:19;6.50;;;5.85;;
22236;SDS011;11287;48.122;11.536;2023-05-21T12:06:44;7.67;;;5.57;;
22236;SDS011;11287;48.122;11.536;2023-05-21T12:09:10;5.47;;;4.77;;
22236;SDS011;11287;48.122;11.536;2023-05-21T12:11:42;9.05;;;4.88;;
22236;SDS011;11287;48.122;11.536;2023-05-21T12:14:07;5.63;;;4.63;;
22236;SDS011;11287;48.122;11.536;2023-05-21T12:16:34;5.43;;;4.93;;
22236;SDS011;11287;48.122;11.536;2023-05-21T12:18:59;6.65;;;4.90;;
22236;SDS011;11287;48.122;11.536;2023-05-21T12:21:28;8.40;;;6.00;;
22236;SDS011;11287;48.122;11.536;2023-05-21T12:23:54;6.13;;;5.60;;
22236;SDS011;11287;48.122;11.536;2023-05-21T12:26:22;6.13;;;5.25;;
22236;SDS011;11287;48.122;11.536;2023-05-21T12:28:54;6.45;;;5.80;;
22236;SDS011;11287;48.122;11.536;2023-05-21T12:31:20;7.07;;;6.35;;
22236;SDS011;11287;48.122;11.536;2023-05-21T12:33:50;8.65;;;5.80;;
22236;SDS011;11287;48.122;11.536;2023-05-21T12:36:24;8.30;;;6.10;;
22236;SDS011;11287;48.122;11.536;2023-05-21T12:38:50;7.90;;;5.60;;
22236;SDS011;11287;48.122;11.536;2023-05-21T12:41:16;6.55;;;5.80;;
22236;SDS011;11287;48.122;11.536;2023-05-21T12:43:41;7.55;;;6.25;;
22236;SDS011;11287;48.122;11.536;2023-05-21T12:46:07;6.05;;;5.53;;
22236;SDS011;11287;48.122;11.536;2023-05-21T12:48:36;9.38;;;5.60;;
22236;SDS011;11287;48.122;11.536;2023-05-21T12:51:02;5.82;;;5.32;;
22236;SDS011;11287;48.122;11.536;2023-05-21T12:53:35;7.40;;;6.35;;
22236;SDS011;11287;48.122;11.536;2023-05-21T12:56:08;8.93;;;5.82;;
22236;SDS011;11287;48.122;11.536;2023-05-21T12:58:37;5.78;;;5.28;;
22236;SDS011;11287;48.122;11.536;2023-05-21T13:01:10;7.03;;;6.32;;
22236;SDS011;11287;48.122;11.536;2023-05-21T13:03:36;6.63;;;5.03;;
22236;SDS011;11287;48.122;11.536;2023-05-21T13:06:04;6.43;;;5.38;;
22236;SDS011;11287;48.122;11.536;2023-05-21T13:08:31;6.38;;;5.72;;
22236;SDS011;11287;48.122;11.536;2023-05-21T13:10:58;6.15;;;5.55;;
22236;SDS011;11287;48.122;11.536;2023-05-21T13:13:26;8.30;;;5.55;;
22236;SDS011;11287;48.122;11.536;2023-05-21T13:15:52;6.93;;;5.23;;
22236;SDS011;11287;48.122;11.536;2023-05-21T13:18:19;5.90;;;5.30;;
22236;SDS011;11287;48.122;11.536;2023-05-21T13:20:44;6.38;;;5.72;;
22236;SDS011;11287;48.122;11.536;2023-05-21T13:23:10;6.82;;;6.07;;
22236;SDS011;11287;48.122;11.536;2023-05-21T13:25:36;6.20;;;5.50;;
22236;SDS011;11287;48.122;11.536;2023-05-21T13:28:02;6.70;;;5.47;;
22236;SDS011;11287;48.122;11.536;2023-05-21T13:30:28;6.00;;;5.30;;
22236;SDS011;11287;48.122;11.536;2023-05-21T13:32:54;5.60;;;5.10;;
22236;SDS011;11287;48.122;11.536;2023-05-21T13:35:19;8.77;;;5.60;;
22236;SDS011;11287;48.122;11.536;2023-05-21T13:37:45;6.38;;;5.07;;
22236;SDS011;11287;48.122;11.536;2023-05-21T13:40:11;8.27;;;5.50;;
22236;SDS011;11287;48.122;11.536;2023-05-21T13:42:40;5.63;;;5.18;;
22236;SDS011;11287;48.122;11.536;2023-05-21T13:45:07;7.38;;;5.22;;
22236;SDS011;11287;48.122;11.536;2023-05-21T13:47:33;7.20;;;5.80;;
22236;SDS011;11287;48.122;11.536;2023-05-21T13:49:58;6.40;;;5.73;;
22236;SDS011;11287;48.122;11.536;2023-05-21T13:52:24;6.65;;;5.60;;
22236;SDS011;11287;48.122;11.536;2023-05-21T13:54:49;6.10;;;5.50;;
22236;SDS011;11287;48.122;11.536;2023-05-21T13:57:14;6.23;;;5.50;;
22236;SDS011;11287;48.122;11.536;2023-05-21T13:59:40;6.20;;;5.60;;
22236;SDS011;11287;48.122;11.536;2023-05-21T14:02:05;5.93;;;5.00;;
22236;SDS011;11287;48.122;11.536;2023-05-21T14:04:32;7.05;;;5.70;;
22236;SDS011;11287;48.122;11.536;2023-05-21T14:06:58;5.90;;;5.30;;
22236;SDS011;11287;48.122;11.536;2023-05-21T14:09:23;5.60;;;5.10;;
22236;SDS011;11287;48.122;11.536;2023-05-21T14:11:51;5.53;;;5.03;;
22236;SDS011;11287;48.122;11.536;2023-05-21T14:14:16;7.65;;;5.63;;
22236;SDS011;11287;48.122;11.536;2023-05-21T14:16:44;5.68;;;5.15;;
22236;SDS011;11287;48.122;11.536;2023-05-21T14:19:10;7.82;;;5.57;;
22236;SDS011;11287;48.122;11.536;2023-05-21T14:21:36;8.45;;;5.53;;
22236;SDS011;11287;48.122;11.536;2023-05-21T14:24:02;6.05;;;5.45;;
22236;SDS011;11287;48.122;11.536;2023-05-21T14:26:28;9.45;;;5.68;;
22236;SDS011;11287;48.122;11.536;2023-05-21T14:28:53;5.60;;;5.00;;
22236;SDS011;11287;48.122;11.536;2023-05-21T14:31:18;5.87;;;5.27;;
22236;SDS011;11287;48.122;11.536;2023-05-21T14:33:45;6.60;;;5.47;;
22236;SDS011;11287;48.122;11.536;2023-05-21T14:36:10;9.50;;;5.93;;
22236;SDS011;11287;48.122;11.536;2023-05-21T14:38:36;5.70;;;5.20;;
22236;SDS011;11287;48.122;11.536;2023-05-21T14:41:01;6.07;;;5.47;;
22236;SDS011;11287;48.122;11.536;2023-05-21T14:43:26;6.35;;;5.75;;
22236;SDS011;11287;48.122;11.536;2023-05-21T14:45:52;6.35;;;5.75;;
22236;SDS011;11287;48.122;11.536;2023-05-21T14:48:17;7.00;;;6.30;;
22236;SDS011;11287;48.122;11.536;2023-05-21T14:50:46;7.78;;;5.30;;
22236;SDS011;11287;48.122;11.536;2023-05-21T14:53:11;8.32;;;5.35;;
22236;SDS011;11287;48.122;11.536;2023-05-21T14:55:37;6.07;;;5.13;;